sensor_id;sensor_type;location;lat;lon;timestamp;pressure;altitude;pressure_sealevel;temperature;humidity
35045;BME280;21231;48.394;34.964;2024-03-02T15:34:20;100404.50;;;1.26;100.00
35045;BME280;21231;48.394;34.964;2024-03-02T15:37:06;100402.56;;;1.23;100.00
35045;BME280;21231;48.394;34.964;2024-03-02T15:39:53;100405.09;;;1.14;100.00
35045;BME280;21231;48.394;34.964;2024-03-02T15:42:39;100413.31;;;1.12;100.00
35045;BME280;21231;48.394;34.964;2024-03-02T15:45:25;100403.00;;;1.10;100.00
35045;BME280;21231;48.394;34.964;2024-03-02T15:48:19;100399.41;;;0.99;100.00
35045;BME280;21231;48.394;34.964;2024-03-02T15:51:06;100403.88;;;1.02;100.00
35045;BME280;21231;48.394;34.964;2024-03-02T15:53:52;100401.81;;;0.89;100.00
35045;BME280;21231;48.394;34.964;2024-03-02T15:56:39;100406.13;;;0.90;100.00
35045;BME280;21231;48.394;34.964;2024-03-02T15:59:25;100403.75;;;0.92;100.00
35045;BME280;21231;48.394;34.964;2024-03-02T16:02:11;100404.19;;;0.87;100.00
35045;BME280;21231;48.394;34.964;2024-03-02T16:04:57;100406.72;;;0.87;100.00
35045;BME280;21231;48.394;34.964;2024-03-02T16:07:44;100381.34;;;0.70;100.00
35045;BME280;21231;48.394;34.964;2024-03-02T16:10:30;100387.63;;;0.82;100.00
35045;BME280;21231;48.394;34.964;2024-03-02T16:13:16;100394.78;;;0.86;100.00
35045;BME280;21231;48.394;34.964;2024-03-02T16:16:03;100395.84;;;0.80;100.00
35045;BME280;21231;48.394;34.964;2024-03-02T16:18:50;100395.84;;;0.80;100.00
35045;BME280;21231;48.394;34.964;2024-03-02T16:21:36;100390.44;;;0.77;100.00
35045;BME280;21231;48.394;34.964;2024-03-02T16:24:22;100398.22;;;0.78;100.00
35045;BME280;21231;48.394;34.964;2024-03-02T16:27:08;100393.91;;;0.77;100.00
35045;BME280;21231;48.394;34.964;2024-03-02T16:29:55;100387.31;;;0.70;100.00
35045;BME280;21231;48.394;34.964;2024-03-02T16:32:42;100393.00;;;0.68;100.00
35045;BME280;21231;48.394;34.964;2024-03-02T16:35:28;100388.94;;;0.70;100.00
35045;BME280;21231;48.394;34.964;2024-03-02T16:38:14;100392.25;;;0.69;100.00
35045;BME280;21231;48.394;34.964;2024-03-02T16:41:00;100393.88;;;0.68;100.00
35045;BME280;21231;48.394;34.964;2024-03-02T16:43:46;100367.28;;;0.56;100.00
35045;BME280;21231;48.394;34.964;2024-03-02T16:46:32;100390.44;;;0.68;100.00
35045;BME280;21231;48.394;34.964;2024-03-02T16:49:19;100382.38;;;0.63;100.00
35045;BME280;21231;48.394;34.964;2024-03-02T16:52:08;100379.69;;;0.61;100.00
35045;BME280;21231;48.394;34.964;2024-03-02T16:54:55;100374.72;;;0.54;100.00
35045;BME280;21231;48.394;34.964;2024-03-02T16:57:44;100391.16;;;0.49;100.00
35045;BME280;21231;48.394;34.964;2024-03-02T17:00:31;100387.53;;;0.38;100.00
35045;BME280;21231;48.394;34.964;2024-03-02T17:03:17;100379.03;;;0.29;100.00
35045;BME280;21231;48.394;34.964;2024-03-02T17:06:04;100378.69;;;0.17;100.00
35045;BME280;21231;48.394;34.964;2024-03-02T17:08:50;100369.38;;;-0.00;100.00
35045;BME280;21231;48.394;34.964;2024-03-02T17:11:36;100370.44;;;0.02;100.00
35045;BME280;21231;48.394;34.964;2024-03-02T17:14:22;100363.28;;;-0.03;100.00
35045;BME280;21231;48.394;34.964;2024-03-02T17:17:08;100367.75;;;0.00;100.00
35045;BME280;21231;48.394;34.964;2024-03-02T17:19:54;100363.38;;;-0.10;100.00
35045;BME280;21231;48.394;34.964;2024-03-02T17:22:41;100367.47;;;-0.28;100.00
35045;BME280;21231;48.394;34.964;2024-03-02T17:25:27;100347.00;;;-0.38;100.00
35045;BME280;21231;48.394;34.964;2024-03-02T17:28:25;100346.69;;;-0.42;100.00
35045;BME280;21231;48.394;34.964;2024-03-02T17:31:15;100341.19;;;-0.46;100.00
35045;BME280;21231;48.394;34.964;2024-03-02T17:34:01;100341.03;;;-0.39;100.00
35045;BME280;21231;48.394;34.964;2024-03-02T17:36:47;100332.31;;;-0.34;100.00
35045;BME280;21231;48.394;34.964;2024-03-02T17:39:33;100342.28;;;-0.26;100.00
35045;BME280;21231;48.394;34.964;2024-03-02T17:42:20;100327.91;;;-0.10;100.00
35045;BME280;21231;48.394;34.964;2024-03-02T17:45:06;100325.22;;;-0.11;100.00
35045;BME280;21231;48.394;34.964;2024-03-02T17:47:52;100325.69;;;-0.07;100.00
35045;BME280;21231;48.394;34.964;2024-03-02T17:50:38;100319.44;;;-0.10;100.00
35045;BME280;21231;48.394;34.964;2024-03-02T17:53:24;100312.38;;;-0.13;100.00
35045;BME280;21231;48.394;34.964;2024-03-02T17:56:10;100311.84;;;-0.10;100.00
35045;BME280;21231;48.394;34.964;2024-03-02T17:58:59;100301.69;;;-0.10;100.00
35045;BME280;21231;48.394;34.964;2024-03-02T18:01:45;100311.09;;;-0.00;100.00
35045;BME280;21231;48.394;34.964;2024-03-02T18:04:31;100309.34;;;0.16;100.00
35045;BME280;21231;48.394;34.964;2024-03-02T18:07:17;100307.88;;;0.18;100.00
35045;BME280;21231;48.394;34.964;2024-03-02T18:10:06;100311.91;;;0.25;100.00
35045;BME280;21231;48.394;34.964;2024-03-02T18:12:52;100299.09;;;0.23;100.00
35045;BME280;21231;48.394;34.964;2024-03-02T18:15:39;100265.50;;;0.08;100.00
35045;BME280;21231;48.394;34.964;2024-03-02T18:18:26;100299.25;;;0.25;100.00
35045;BME280;21231;48.394;34.964;2024-03-02T18:21:12;100290.72;;;0.25;100.00
35045;BME280;21231;48.394;34.964;2024-03-02T18:23:59;100287.44;;;0.26;100.00
35045;BME280;21231;48.394;34.964;2024-03-02T18:26:46;100272.81;;;0.23;100.00
35045;BME280;21231;48.394;34.964;2024-03-02T18:29:33;100260.88;;;0.13;100.00
35045;BME280;21231;48.394;34.964;2024-03-02T18:32:22;100270.88;;;0.12;100.00
35045;BME280;21231;48.394;34.964;2024-03-02T18:35:08;100273.13;;;0.08;100.00
35045;BME280;21231;48.394;34.964;2024-03-02T18:37:54;100281.03;;;0.20;100.00
35045;BME280;21231;48.394;34.964;2024-03-02T18:40:40;100279.25;;;0.28;100.00
35045;BME280;21231;48.394;34.964;2024-03-02T18:43:27;100272.06;;;0.24;100.00
35045;BME280;21231;48.394;34.964;2024-03-02T18:46:14;100267.59;;;0.21;100.00
35045;BME280;21231;48.394;34.964;2024-03-02T18:49:00;100266.56;;;0.19;100.00
35045;BME280;21231;48.394;34.964;2024-03-02T18:51:46;100261.03;;;0.15;100.00
35045;BME280;21231;48.394;34.964;2024-03-02T18:54:33;100262.69;;;0.23;100.00
35045;BME280;21231;48.394;34.964;2024-03-02T18:57:19;100265.22;;;0.23;100.00
35045;BME280;21231;48.394;34.964;2024-03-02T19:00:05;100250.00;;;0.23;100.00
35045;BME280;21231;48.394;34.964;2024-03-02T19:02:59;100263.00;;;0.26;100.00
35045;BME280;21231;48.394;34.964;2024-03-02T19:05:46;100254.78;;;0.29;100.00
35045;BME280;21231;48.394;34.964;2024-03-02T19:08:32;100247.47;;;0.23;100.00
35045;BME280;21231;48.394;34.964;2024-03-02T19:11:18;100249.56;;;0.09;100.00
35045;BME280;21231;48.394;34.964;2024-03-02T19:14:05;100250.31;;;0.08;100.00
35045;BME280;21231;48.394;34.964;2024-03-02T19:16:51;100251.78;;;0.06;100.00
35045;BME280;21231;48.394;34.964;2024-03-02T19:19:37;100259.81;;;0.02;100.00
35045;BME280;21231;48.394;34.964;2024-03-02T19:22:25;100245.22;;;-0.00;100.00
35045;BME280;21231;48.394;34.964;2024-03-02T19:25:13;100248.97;;;0.03;100.00
35045;BME280;21231;48.394;34.964;2024-03-02T19:28:00;100260.44;;;0.08;100.00
35045;BME280;21231;48.394;34.964;2024-03-02T19:30:46;100251.97;;;0.17;100.00
35045;BME280;21231;48.394;34.964;2024-03-02T19:33:35;100246.72;;;0.24;100.00
35045;BME280;21231;48.394;34.964;2024-03-02T19:36:21;100236.13;;;0.28;100.00
35045;BME280;21231;48.394;34.964;2024-03-02T19:39:08;100241.69;;;0.42;100.00
35045;BME280;21231;48.394;34.964;2024-03-02T19:41:56;100253.91;;;0.55;100.00
35045;BME280;21231;48.394;34.964;2024-03-02T19:44:45;100254.66;;;0.71;100.00
35045;BME280;21231;48.394;34.964;2024-03-02T19:47:32;100257.31;;;0.82;100.00
35045;BME280;21231;48.394;34.964;2024-03-02T19:50:19;100243.13;;;0.84;100.00
35045;BME280;21231;48.394;34.964;2024-03-02T19:53:05;100252.34;;;1.01;100.00
35045;BME280;21231;48.394;34.964;2024-03-02T19:55:51;100256.06;;;1.13;100.00
35045;BME280;21231;48.394;34.964;2024-03-02T19:58:37;100257.66;;;1.31;100.00
35045;BME280;21231;48.394;34.964;2024-03-02T20:01:23;100250.44;;;1.44;100.00
35045;BME280;21231;48.394;34.964;2024-03-02T20:04:10;100247.78;;;1.34;100.00
35045;BME280;21231;48.394;34.964;2024-03-02T20:06:57;100251.66;;;1.39;100.00
35045;BME280;21231;48.394;34.964;2024-03-02T20:09:43;100234.53;;;1.56;100.00
35045;BME280;21231;48.394;34.964;2024-03-02T20:12:30;100245.69;;;1.66;100.00
35045;BME280;21231;48.394;34.964;2024-03-02T20:15:17;100243.13;;;1.75;100.00
35045;BME280;21231;48.394;34.964;2024-03-02T20:18:06;100244.91;;;1.76;100.00
35045;BME280;21231;48.394;34.964;2024-03-02T20:20:52;100231.66;;;1.70;100.00
35045;BME280;21231;48.394;34.964;2024-03-02T20:23:38;100240.44;;;1.74;100.00
35045;BME280;21231;48.394;34.964;2024-03-02T20:26:24;100235.06;;;1.71;100.00
35045;BME280;21231;48.394;34.964;2024-03-02T20:29:10;100243.16;;;1.66;100.00
35045;BME280;21231;48.394;34.964;2024-03-02T20:31:56;100243.50;;;1.61;100.00
35045;BME280;21231;48.394;34.964;2024-03-02T20:34:45;100212.13;;;1.51;100.00
35045;BME280;21231;48.394;34.964;2024-03-02T20:37:32;100209.94;;;1.46;100.00
35045;BME280;21231;48.394;34.964;2024-03-02T20:40:18;100224.72;;;1.50;100.00
35045;BME280;21231;48.394;34.964;2024-03-02T20:43:05;100224.72;;;1.50;100.00
35045;BME280;21231;48.394;34.964;2024-03-02T20:45:52;100167.66;;;1.09;100.00
35045;BME280;21231;48.394;34.964;2024-03-02T20:48:38;100215.13;;;1.56;100.00
35045;BME280;21231;48.394;34.964;2024-03-02T20:51:25;100222.09;;;1.68;100.00
35045;BME280;21231;48.394;34.964;2024-03-02T20:54:17;100225.09;;;1.63;100.00
35045;BME280;21231;48.394;34.964;2024-03-02T20:57:04;100227.19;;;1.68;100.00
35045;BME280;21231;48.394;34.964;2024-03-02T20:59:52;100228.81;;;1.67;100.00
35045;BME280;21231;48.394;34.964;2024-03-02T21:02:38;100227.91;;;1.66;100.00
35045;BME280;21231;48.394;34.964;2024-03-02T21:05:24;100236.72;;;1.70;100.00
35045;BME280;21231;48.394;34.964;2024-03-02T21:08:10;100219.59;;;1.59;100.00
35045;BME280;21231;48.394;34.964;2024-03-02T21:10:58;100239.34;;;1.52;100.00
35045;BME280;21231;48.394;34.964;2024-03-02T21:13:45;100215.16;;;1.47;100.00
35045;BME280;21231;48.394;34.964;2024-03-02T21:16:31;100240.53;;;1.56;100.00
35045;BME280;21231;48.394;34.964;2024-03-02T21:19:17;100231.72;;;1.52;100.00
35045;BME280;21231;48.394;34.964;2024-03-02T21:22:04;100234.38;;;1.54;100.00
35045;BME280;21231;48.394;34.964;2024-03-02T21:24:52;100229.44;;;1.64;100.00
35045;BME280;21231;48.394;34.964;2024-03-02T21:27:39;100222.44;;;1.53;100.00
35045;BME280;21231;48.394;34.964;2024-03-02T21:30:25;100240.66;;;1.58;100.00
35045;BME280;21231;48.394;34.964;2024-03-02T21:33:11;100233.03;;;1.58;100.00
35045;BME280;21231;48.394;34.964;2024-03-02T21:35:58;100221.09;;;1.57;100.00
35045;BME280;21231;48.394;34.964;2024-03-02T21:38:44;100237.97;;;1.56;100.00
35045;BME280;21231;48.394;34.964;2024-03-02T21:41:30;100235.91;;;1.52;100.00
35045;BME280;21231;48.394;34.964;2024-03-02T21:44:16;100223.97;;;1.51;100.00
35045;BME280;21231;48.394;34.964;2024-03-02T21:47:03;100225.13;;;1.55;100.00
35045;BME280;21231;48.394;34.964;2024-03-02T21:49:52;100224.22;;;1.54;100.00
35045;BME280;21231;48.394;34.964;2024-03-02T21:52:38;100225.00;;;1.53;100.00
35045;BME280;21231;48.394;34.964;2024-03-02T21:55:24;100230.22;;;1.55;100.00
35045;BME280;21231;48.394;34.964;2024-03-02T21:58:11;100220.81;;;1.53;100.00
35045;BME280;21231;48.394;34.964;2024-03-02T22:00:57;100213.03;;;1.52;100.00
35045;BME280;21231;48.394;34.964;2024-03-02T22:03:44;100215.13;;;1.56;100.00
35045;BME280;21231;48.394;34.964;2024-03-02T22:06:33;100226.19;;;1.57;100.00
35045;BME280;21231;48.394;34.964;2024-03-02T22:09:19;100210.03;;;1.56;100.00
35045;BME280;21231;48.394;34.964;2024-03-02T22:12:05;100200.91;;;1.58;100.00
35045;BME280;21231;48.394;34.964;2024-03-02T22:14:51;100212.47;;;1.74;100.00
35045;BME280;21231;48.394;34.964;2024-03-02T22:17:37;100209.19;;;1.75;100.00
35045;BME280;21231;48.394;34.964;2024-03-02T22:20:23;100216.06;;;1.76;100.00
35045;BME280;21231;48.394;34.964;2024-03-02T22:23:11;100221.25;;;1.77;100.00
35045;BME280;21231;48.394;34.964;2024-03-02T22:26:00;100219.13;;;1.91;100.00
35045;BME280;21231;48.394;34.964;2024-03-02T22:28:46;100224.59;;;1.96;100.00
35045;BME280;21231;48.394;34.964;2024-03-02T22:31:32;100215.50;;;1.98;100.00
35045;BME280;21231;48.394;34.964;2024-03-02T22:34:18;100224.41;;;2.03;100.00
35045;BME280;21231;48.394;34.964;2024-03-02T22:37:04;100219.53;;;1.96;100.00
35045;BME280;21231;48.394;34.964;2024-03-02T22:39:51;100219.66;;;1.97;100.00
35045;BME280;21231;48.394;34.964;2024-03-02T22:42:38;100224.06;;;1.89;100.00
35045;BME280;21231;48.394;34.964;2024-03-02T22:45:24;100220.44;;;1.96;100.00
35045;BME280;21231;48.394;34.964;2024-03-02T22:48:11;100209.28;;;1.85;100.00
35045;BME280;21231;48.394;34.964;2024-03-02T22:50:58;100218.50;;;1.94;100.00
35045;BME280;21231;48.394;34.964;2024-03-02T22:53:45;100228.19;;;1.98;100.00
35045;BME280;21231;48.394;34.964;2024-03-02T22:56:31;100222.06;;;1.96;100.00
35045;BME280;21231;48.394;34.964;2024-03-02T22:59:17;100231.28;;;2.04;100.00
35045;BME280;21231;48.394;34.964;2024-03-02T23:02:03;100238.44;;;2.08;100.00
35045;BME280;21231;48.394;34.964;2024-03-02T23:04:49;100226.41;;;2.16;100.00
35045;BME280;21231;48.394;34.964;2024-03-02T23:07:35;100230.13;;;2.20;100.00
35045;BME280;21231;48.394;34.964;2024-03-02T23:10:22;100220.06;;;2.21;100.00
35045;BME280;21231;48.394;34.964;2024-03-02T23:13:08;100220.97;;;2.22;100.00
35045;BME280;21231;48.394;34.964;2024-03-02T23:15:55;100222.44;;;2.28;100.00
35045;BME280;21231;48.394;34.964;2024-03-02T23:18:43;100224.50;;;2.32;100.00
35045;BME280;21231;48.394;34.964;2024-03-02T23:21:29;100218.88;;;2.26;100.00
35045;BME280;21231;48.394;34.964;2024-03-02T23:24:17;100223.34;;;2.29;100.00
35045;BME280;21231;48.394;34.964;2024-03-02T23:27:04;100216.38;;;2.37;100.00
35045;BME280;21231;48.394;34.964;2024-03-02T23:29:51;100215.09;;;2.31;100.00
35045;BME280;21231;48.394;34.964;2024-03-02T23:32:37;100228.47;;;2.39;100.00
35045;BME280;21231;48.394;34.964;2024-03-02T23:35:24;100224.28;;;2.40;100.00
35045;BME280;21231;48.394;34.964;2024-03-02T23:38:10;100226.22;;;2.42;100.00
35045;BME280;21231;48.394;34.964;2024-03-02T23:40:56;100218.25;;;2.48;100.00
35045;BME280;21231;48.394;34.964;2024-03-02T23:44:00;100221.03;;;2.51;100.00
35045;BME280;21231;48.394;34.964;2024-03-02T23:46:47;100230.34;;;2.51;100.00
35045;BME280;21231;48.394;34.964;2024-03-02T23:49:33;100219.81;;;2.56;100.00
35045;BME280;21231;48.394;34.964;2024-03-02T23:52:20;100217.28;;;2.56;100.00
35045;BME280;21231;48.394;34.964;2024-03-02T23:55:06;100219.53;;;2.53;100.00
35045;BME280;21231;48.394;34.964;2024-03-02T23:57:54;100221.47;;;2.56;100.00
